Time;durP1;ratioP1;P1;durP2;ratioP2;P2;SDS_P1;SDS_P2;PMS_P1;PMS_P2;Temp;Humidity;BMP_temperature;BMP_pressure;BME280_temperature;BME280_humidity;BME280_pressure;Samples;Min_cycle;Max_cycle;Signal;HPM_P1;HPM_P2
2021/03/31 00:01:19;;;;;;;19.13;9.02;;;11.10;70.10;;;11.70;57.11;101484.53;5094677;28;20047;-81
2021/03/31 00:03:46;;;;;;;22.75;9.65;;;11.10;70.70;;;11.70;57.14;101481.81;5094299;28;20059;-81
2021/03/31 00:06:13;;;;;;;19.20;9.13;;;11.10;70.30;;;11.70;57.60;101484.53;5095232;28;20403;-81
2021/03/31 00:08:40;;;;;;;21.83;9.98;;;11.10;70.70;;;11.67;57.37;101479.44;5088848;28;20051;-81
2021/03/31 00:11:07;;;;;;;20.15;9.70;;;11.00;70.60;;;11.65;57.45;101484.19;5090412;28;20056;-81
2021/03/31 00:13:34;;;;;;;18.85;9.50;;;11.00;70.60;;;11.62;57.83;101481.78;5082752;28;20052;-81
2021/03/31 00:16:01;;;;;;;20.08;9.90;;;11.00;70.80;;;11.63;57.70;101478.06;5089507;28;20045;-80
2021/03/31 00:18:28;;;;;;;21.50;10.05;;;11.00;71.10;;;11.61;57.72;101469.16;5080471;28;20070;-81
2021/03/31 00:20:55;;;;;;;19.25;8.82;;;10.90;71.20;;;11.58;57.79;101464.06;5083467;28;20059;-81
2021/03/31 00:23:25;;;;;;;20.65;10.60;;;10.90;71.30;;;11.58;57.88;101474.13;5094232;28;20044;-81
2021/03/31 00:25:52;;;;;;;19.58;9.52;;;10.90;71.40;;;11.57;57.97;101459.63;5094806;28;20436;-81
2021/03/31 00:28:21;;;;;;;17.98;9.93;;;10.90;71.60;;;11.53;58.10;101455.53;5088422;28;20048;-81
2021/03/31 00:30:49;;;;;;;21.13;10.07;;;10.80;71.50;;;11.51;58.15;101455.69;5081570;28;20047;-80
2021/03/31 00:33:17;;;;;;;16.23;9.30;;;10.80;71.90;;;11.48;58.00;101449.72;5094723;28;20420;-80
2021/03/31 00:35:44;;;;;;;20.92;10.68;;;10.80;71.80;;;11.47;58.09;101440.69;5088662;28;20094;-81
2021/03/31 00:38:12;;;;;;;19.83;9.35;;;10.80;71.80;;;11.45;58.31;101442.75;5087912;28;20055;-80
2021/03/31 00:40:46;;;;;;;17.63;10.15;;;10.80;72.00;;;11.40;58.40;101438.81;5081375;28;20072;-80
2021/03/31 00:43:13;;;;;;;22.35;10.50;;;10.70;72.00;;;11.39;58.29;101437.97;5082772;28;20048;-80
2021/03/31 00:45:43;;;;;;;20.10;10.10;;;10.70;72.00;;;11.35;58.35;101429.28;5086588;28;20043;-80
2021/03/31 00:48:13;;;;;;;20.65;10.57;;;10.70;72.00;;;11.34;58.61;101440.34;5077534;28;20049;-81
2021/03/31 00:50:41;;;;;;;20.88;10.70;;;10.70;72.30;;;11.32;58.63;101426.03;5082786;28;20048;-80
2021/03/31 00:53:09;;;;;;;20.65;10.30;;;10.70;72.40;;;11.29;58.62;101421.78;5084068;28;20114;-80
2021/03/31 00:55:37;;;;;;;18.02;10.02;;;10.60;72.30;;;11.28;58.85;101425.50;5084891;28;20045;-80
2021/03/31 00:58:04;;;;;;;22.60;10.45;;;10.60;72.50;;;11.27;58.71;101425.66;5078821;28;20051;-81
2021/03/31 01:00:31;;;;;;;22.60;10.80;;;10.60;72.40;;;11.31;58.50;101408.81;5081444;28;20043;-81
2021/03/31 01:02:58;;;;;;;25.88;10.73;;;10.60;72.50;;;11.29;58.60;101410.88;5094864;28;20052;-81
2021/03/31 01:05:29;;;;;;;21.38;10.10;;;10.60;72.40;;;11.25;58.73;101409.50;5087475;28;20082;-81
2021/03/31 01:07:56;;;;;;;19.17;9.85;;;10.60;72.40;;;11.24;58.83;101406.94;5095327;28;20121;-80
2021/03/31 01:10:27;;;;;;;18.83;10.35;;;10.50;72.80;;;11.20;59.03;101402.84;5093670;28;20048;-81
2021/03/31 01:13:46;;;;;;;20.00;10.50;;;10.50;72.90;;;11.14;58.96;101401.66;5095319;28;20043;-81
2021/03/31 01:16:32;;;;;;;20.73;10.38;;;10.50;72.90;;;11.07;59.10;101398.72;5088810;28;20178;-81
2021/03/31 01:19:14;;;;;;;20.20;10.07;;;10.40;73.00;;;11.08;59.13;101391.38;5074631;28;20409;-81
2021/03/31 01:22:34;;;;;;;21.50;10.23;;;10.40;73.10;;;11.03;59.42;101388.34;5075229;28;20076;-81
2021/03/31 01:25:13;;;;;;;22.23;10.05;;;10.30;73.50;;;10.98;59.51;101393.41;5081881;28;20053;-81
2021/03/31 01:28:08;;;;;;;19.15;10.23;;;10.30;73.60;;;10.96;59.52;101388.97;5081376;28;20048;-81
2021/03/31 01:30:44;;;;;;;20.80;10.23;;;10.20;73.70;;;10.94;59.70;101384.72;5089112;28;20048;-81
2021/03/31 01:33:43;;;;;;;17.92;9.85;;;10.20;74.10;;;10.92;59.56;101392.19;5081138;28;20127;-81
2021/03/31 01:36:15;;;;;;;22.42;9.70;;;10.10;74.10;;;10.85;59.42;101375.69;5081825;28;20041;-81
2021/03/31 01:38:46;;;;;;;18.95;9.80;;;10.10;74.30;;;10.88;59.50;101386.22;5074345;28;20106;-81
2021/03/31 01:41:14;;;;;;;;;;;10.10;74.50;;;10.87;59.82;101379.09;5088802;28;20340;-81
2021/03/31 01:43:41;;;;;;;21.40;10.48;;;10.10;74.30;;;10.85;59.91;101381.13;5086314;28;19920;-81
2021/03/31 01:46:08;;;;;;;19.33;9.98;;;10.00;74.40;;;10.80;60.13;101383.50;5083281;28;20493;-81
2021/03/31 01:48:37;;;;;;;18.17;9.80;;;10.10;74.90;;;10.82;59.92;101377.88;5074676;28;20052;-81
2021/03/31 01:51:09;;;;;;;23.45;10.88;;;10.10;74.80;;;10.81;60.13;101374.28;5085048;28;20496;-81
2021/03/31 01:53:39;;;;;;;20.27;10.55;;;10.10;74.70;;;10.82;59.90;101365.13;5086718;28;20043;-81
2021/03/31 01:56:07;;;;;;;23.00;10.48;;;10.10;74.50;;;10.84;60.03;101373.97;5082227;28;20043;-81
2021/03/31 01:58:37;;;;;;;18.92;10.35;;;10.10;74.50;;;10.84;59.85;101362.22;5080893;28;20529;-81
2021/03/31 02:01:04;;;;;;;20.25;10.27;;;10.10;74.60;;;10.84;59.69;101362.22;5077758;28;20036;-81
2021/03/31 02:03:32;;;;;;;24.77;11.15;;;10.10;74.10;;;10.84;59.76;101354.91;5084210;28;20040;-81
2021/03/31 02:05:59;;;;;;;24.92;11.73;;;10.20;74.00;;;10.85;59.54;101351.19;5080555;28;20063;-81
2021/03/31 02:08:27;;;;;;;20.92;10.63;;;10.20;73.60;;;10.87;59.63;101356.44;5085820;28;20071;-81
2021/03/31 02:10:55;;;;;;;23.52;10.82;;;10.20;73.80;;;10.83;59.65;101355.91;5083702;28;20072;-81
2021/03/31 02:13:23;;;;;;;18.30;9.05;;;10.20;73.70;;;10.83;59.77;101350.47;5082543;28;20573;-81
2021/03/31 02:15:57;;;;;;;17.42;8.77;;;10.20;73.60;;;10.83;59.48;101349.63;5074131;28;20097;-81
2021/03/31 02:18:26;;;;;;;18.90;9.13;;;10.20;73.60;;;10.83;59.08;101347.75;5080791;28;20055;-81
2021/03/31 02:20:54;;;;;;;20.63;9.13;;;10.20;73.10;;;10.81;59.45;101347.06;5073992;28;20052;-81
2021/03/31 02:23:22;;;;;;;18.02;9.25;;;10.20;73.50;;;10.78;59.39;101341.97;5086501;28;20140;-80
2021/03/31 02:25:49;;;;;;;19.40;9.27;;;10.10;73.70;;;10.75;59.54;101343.13;5089736;28;20062;-81
2021/03/31 02:28:17;;;;;;;16.65;8.40;;;10.00;73.60;;;10.72;59.26;101343.47;5081444;28;20052;-80
2021/03/31 02:30:44;;;;;;;16.70;8.75;;;10.10;73.30;;;10.74;59.46;101341.44;5080628;28;20078;-81
2021/03/31 02:33:13;;;;;;;18.05;8.85;;;10.10;73.70;;;10.76;59.45;101335.84;5080468;28;20044;-81
2021/03/31 02:35:42;;;;;;;16.30;8.43;;;10.10;73.50;;;10.77;59.49;101334.81;5084218;28;20067;-81
2021/03/31 02:38:15;;;;;;;17.42;8.20;;;10.10;73.60;;;10.74;59.28;101335.16;5087274;28;20184;-81
2021/03/31 02:40:48;;;;;;;20.27;8.15;;;10.10;73.20;;;10.72;58.96;101331.75;5080759;28;20047;-81
2021/03/31 02:43:17;;;;;;;17.60;8.75;;;10.10;73.30;;;10.71;59.13;101324.56;5074843;28;20707;-81
2021/03/31 02:45:50;;;;;;;16.27;9.07;;;10.10;73.20;;;10.70;59.09;101323.72;5073135;28;20056;-81
2021/03/31 02:48:20;;;;;;;15.18;8.60;;;10.10;73.40;;;10.71;59.22;101319.13;5085964;28;20051;-81
2021/03/31 02:50:48;;;;;;;18.58;8.98;;;10.10;73.10;;;10.72;59.02;101316.25;5079954;28;20055;-81
2021/03/31 02:53:16;;;;;;;20.15;8.07;;;10.10;73.10;;;10.72;59.03;101326.28;5086566;28;20044;-81
2021/03/31 02:55:43;;;;;;;21.05;8.40;;;10.10;73.10;;;10.70;59.22;101322.84;5081420;28;20071;-81
2021/03/31 02:58:11;;;;;;;18.17;8.18;;;10.10;73.20;;;10.69;59.41;101321.16;5077347;28;20169;-81
2021/03/31 03:00:39;;;;;;;19.02;9.55;;;10.10;73.40;;;10.66;59.46;101316.03;5088250;28;20079;-81
2021/03/31 03:03:09;;;;;;;17.33;9.13;;;10.10;73.30;;;10.66;59.36;101311.47;5072610;28;20408;-81
2021/03/31 03:05:36;;;;;;;17.42;8.82;;;10.10;73.20;;;10.65;59.60;101308.91;5078879;28;20040;-81
2021/03/31 03:08:04;;;;;;;17.02;8.98;;;10.10;73.50;;;10.62;59.96;101314.69;5092148;28;20072;-81
2021/03/31 03:10:31;;;;;;;19.23;9.30;;;10.00;73.80;;;10.61;59.87;101310.28;5091794;28;20397;-81
2021/03/31 03:13:01;;;;;;;17.55;8.52;;;10.00;73.90;;;10.57;60.10;101310.59;5081886;28;20434;-81
2021/03/31 03:15:30;;;;;;;15.95;8.15;;;9.90;74.10;;;10.55;60.03;101309.91;5077158;28;20036;-81
2021/03/31 03:17:58;;;;;;;18.30;8.98;;;9.90;74.30;;;10.56;60.04;101306.16;5084870;28;20040;-80
2021/03/31 03:20:25;;;;;;;18.05;9.13;;;10.00;74.10;;;10.56;59.77;101306.16;5089988;28;20056;-81
2021/03/31 03:22:55;;;;;;;15.85;8.32;;;9.90;74.00;;;10.56;59.88;101308.88;5082883;28;20505;-81
2021/03/31 03:25:25;;;;;;;18.35;8.73;;;10.00;74.10;;;10.55;59.95;101301.75;5077444;28;20080;-81
2021/03/31 03:27:53;;;;;;;18.80;8.98;;;9.90;74.40;;;10.53;59.79;101298.34;5083393;28;20057;-81
2021/03/31 03:30:22;;;;;;;16.55;8.73;;;9.90;74.10;;;10.49;59.98;101296.09;5090760;28;20056;-81
2021/03/31 03:32:51;;;;;;;17.58;8.38;;;9.80;74.30;;;10.43;60.40;101294.88;5095428;28;20040;-81
2021/03/31 03:35:23;;;;;;;18.77;8.32;;;9.70;74.90;;;10.40;59.99;101291.66;5092488;28;20044;-81
2021/03/31 03:37:51;;;;;;;15.23;8.55;;;9.70;74.70;;;10.36;60.25;101294.69;5095216;28;20500;-81
2021/03/31 03:40:22;;;;;;;16.75;8.40;;;9.70;75.00;;;10.36;60.58;101293.84;5082827;28;20127;-80
2021/03/31 03:42:48;;;;;;;20.40;8.57;;;9.60;75.30;;;10.34;60.71;101296.72;5083587;28;20047;-81
2021/03/31 03:45:17;;;;;;;16.85;8.52;;;9.60;75.70;;;10.27;60.96;101290.19;5083658;28;20041;-81
2021/03/31 03:47:45;;;;;;;15.43;8.57;;;9.50;76.10;;;10.25;61.20;101285.94;5090376;28;20401;-81
2021/03/31 03:50:14;;;;;;;16.88;8.85;;;9.40;76.20;;;10.23;61.32;101293.41;5076627;28;20063;-80
2021/03/31 03:52:45;;;;;;;20.00;9.85;;;9.40;76.50;;;10.17;61.34;101290.31;5087294;28;20043;-81
2021/03/31 03:55:16;;;;;;;15.90;8.43;;;9.30;77.00;;;10.15;61.53;101286.91;5085051;28;20049;-81
2021/03/31 03:57:43;;;;;;;16.63;8.32;;;9.30;77.00;;;10.11;61.39;101288.28;5076376;28;20052;-81
2021/03/31 04:00:16;;;;;;;16.95;8.80;;;9.30;77.10;;;10.12;61.26;101289.09;5076835;28;20503;-81
2021/03/31 04:02:43;;;;;;;15.55;8.48;;;9.20;77.10;;;10.09;61.35;101286.69;5088497;28;20040;-81
2021/03/31 04:05:11;;;;;;;16.73;8.50;;;9.20;77.20;;;10.05;61.52;101288.03;5091358;28;20056;-81
2021/03/31 04:07:38;;;;;;;16.27;8.95;;;9.20;77.30;;;10.03;61.42;101287.34;5093065;28;20044;-80
2021/03/31 04:10:08;;;;;;;16.40;8.73;;;9.10;77.20;;;9.98;61.79;101293.31;5096484;28;20075;-81
2021/03/31 04:12:37;;;;;;;17.35;9.20;;;9.10;77.40;;;9.97;61.28;101295.13;5096110;28;20067;-81
2021/03/31 04:15:08;;;;;;;20.00;9.05;;;9.10;77.40;;;9.97;61.35;101286.13;5083908;28;20040;-81
2021/03/31 04:17:38;;;;;;;19.45;9.00;;;9.10;77.30;;;9.94;61.68;101291.91;5079466;28;20074;-81
2021/03/31 04:20:09;;;;;;;16.35;9.10;;;9.10;77.50;;;9.93;61.61;101287.47;5095093;28;20185;-81
2021/03/31 04:22:36;;;;;;;16.00;8.63;;;9.10;77.70;;;9.88;61.82;101293.41;5081388;28;20122;-81
2021/03/31 04:25:05;;;;;;;21.00;9.45;;;9.00;77.40;;;9.86;62.04;101286.41;5089967;28;20048;-81
2021/03/31 04:27:34;;;;;;;17.23;8.60;;;9.10;77.80;;;9.87;61.65;101286.25;5088556;28;20104;-80
2021/03/31 04:30:03;;;;;;;17.33;9.10;;;9.10;77.70;;;9.88;62.00;101287.09;5082114;28;20044;-81
2021/03/31 04:32:30;;;;;;;18.83;9.25;;;9.10;77.70;;;9.89;61.76;101283.38;5090435;28;20060;-81
2021/03/31 04:35:01;;;;;;;17.65;8.93;;;9.10;77.50;;;9.89;62.05;101284.22;5075888;28;20045;-81
2021/03/31 04:37:27;;;;;;;17.15;9.40;;;9.20;77.50;;;9.89;62.27;101273.34;5090260;28;20086;-81
2021/03/31 04:39:54;;;;;;;17.55;8.80;;;9.20;77.60;;;9.86;62.27;101275.53;5095510;28;20048;-81
2021/03/31 04:42:22;;;;;;;16.90;9.27;;;9.10;77.60;;;9.87;61.81;101272.66;5083493;28;20052;-82
2021/03/31 04:44:50;;;;;;;18.35;9.02;;;9.10;77.40;;;9.87;62.11;101274.53;5080845;28;20067;-81
2021/03/31 04:47:17;;;;;;;19.02;9.20;;;9.10;77.20;;;9.87;62.16;101271.81;5086408;28;20044;-81
2021/03/31 04:49:44;;;;;;;18.38;9.25;;;9.10;77.40;;;9.88;62.03;101276.22;5095632;28;20047;-81
2021/03/31 04:52:10;;;;;;;18.35;8.85;;;9.10;77.60;;;9.90;61.63;101271.47;5085347;28;20356;-81
2021/03/31 04:54:37;;;;;;;18.02;8.95;;;9.20;77.20;;;9.93;62.09;101268.44;5088381;28;20044;-81
2021/03/31 04:57:05;;;;;;;21.73;8.93;;;9.20;77.30;;;9.94;61.73;101264.72;5085200;28;20082;-81
2021/03/31 04:59:31;;;;;;;20.52;9.50;;;9.20;77.10;;;9.96;61.37;101270.84;5091762;28;20235;-80
2021/03/31 05:01:59;;;;;;;19.33;9.05;;;9.20;76.80;;;9.96;61.76;101271.69;5092190;28;20109;-81
2021/03/31 05:04:26;;;;;;;19.55;8.93;;;9.20;76.80;;;9.93;61.81;101273.88;5086526;28;20052;-82
2021/03/31 05:06:53;;;;;;;18.10;9.95;;;9.20;76.80;;;9.89;61.91;101265.19;5083285;28;20136;-81
2021/03/31 05:09:19;;;;;;;19.02;8.90;;;9.20;76.80;;;9.91;61.78;101262.31;5084286;28;20037;-81
2021/03/31 05:11:46;;;;;;;17.13;9.27;;;9.20;76.90;;;9.92;61.06;101258.59;5082995;28;20079;-82
2021/03/31 05:14:13;;;;;;;18.45;9.07;;;9.30;75.90;;;9.92;61.26;101258.59;5089582;28;20051;-83
2021/03/31 05:16:39;;;;;;;16.27;9.27;;;9.30;75.80;;;9.95;60.60;101258.25;5077373;28;20063;-82
2021/03/31 05:19:07;;;;;;;18.52;9.57;;;9.30;75.50;;;9.93;61.06;101260.28;5085392;28;20512;-82
2021/03/31 05:21:34;;;;;;;16.35;9.07;;;9.30;75.90;;;9.93;61.07;101257.56;5096677;28;20110;-82
2021/03/31 05:24:01;;;;;;;17.52;8.73;;;9.30;75.90;;;9.90;61.22;101260.59;5083759;28;20116;-81
2021/03/31 05:26:27;;;;;;;18.17;9.45;;;9.30;75.90;;;9.93;61.51;101255.69;5076658;28;20560;-82
2021/03/31 05:28:54;;;;;;;18.02;9.35;;;9.30;76.20;;;9.95;60.80;101258.25;5081275;28;20048;-83
2021/03/31 05:31:21;;;;;;;20.08;9.50;;;9.40;75.30;;;9.95;61.15;101260.97;5083424;28;20060;-82
2021/03/31 05:33:48;;;;;;;15.40;8.60;;;9.50;75.50;;;9.97;60.79;101256.22;5075923;28;20102;-83
2021/03/31 05:36:16;;;;;;;18.23;9.25;;;9.50;75.50;;;10.00;60.86;101258.63;5089331;28;20075;-82
2021/03/31 05:38:42;;;;;;;18.83;10.13;;;9.60;75.10;;;10.02;60.81;101261.19;5082424;28;20067;-81
2021/03/31 05:41:09;;;;;;;17.98;9.30;;;9.60;74.70;;;10.03;61.17;101255.56;5081802;28;20082;-82
2021/03/31 05:43:36;;;;;;;16.70;9.32;;;9.70;74.90;;;10.05;61.23;101253.56;5085897;28;20036;-82
2021/03/31 05:46:04;;;;;;;21.92;9.45;;;9.80;74.80;;;10.10;61.24;101248.47;5085115;28;20044;-83
2021/03/31 05:48:32;;;;;;;16.10;8.55;;;9.80;74.40;;;10.11;60.89;101255.63;5077634;28;20048;-83
2021/03/31 05:51:00;;;;;;;17.52;9.25;;;9.70;74.50;;;10.11;61.42;101258.34;5083730;28;20045;-83
2021/03/31 05:53:27;;;;;;;18.75;8.90;;;9.70;75.00;;;10.11;61.63;101249.31;5076816;28;20128;-81
2021/03/31 05:55:54;;;;;;;19.33;8.65;;;9.70;75.20;;;10.10;61.90;101255.78;5093998;28;20044;-83
2021/03/31 05:58:22;;;;;;;14.73;8.00;;;9.70;75.60;;;10.08;61.60;101255.94;5089052;28;20052;-84
2021/03/31 06:00:50;;;;;;;16.77;8.55;;;9.70;75.50;;;10.05;61.89;101256.28;5082292;28;20081;-81
2021/03/31 06:03:21;;;;;;;18.98;8.48;;;9.80;75.20;;;10.08;61.67;101255.94;5084026;28;20120;-82
2021/03/31 06:05:47;;;;;;;16.83;8.73;;;9.80;75.10;;;10.14;61.56;101247.13;5082274;28;20037;-82
2021/03/31 06:08:15;;;;;;;18.23;9.13;;;9.90;74.60;;;10.15;61.81;101248.84;5087393;28;20059;-82
2021/03/31 06:10:43;;;;;;;18.73;8.63;;;10.00;74.70;;;10.17;62.15;101249.53;5092937;28;20103;-83
2021/03/31 06:13:12;;;;;;;15.57;9.05;;;10.10;75.20;;;10.25;62.30;101248.72;5094135;28;20032;-83
2021/03/31 06:15:41;;;;;;;22.95;9.07;;;10.20;74.70;;;10.35;62.34;101251.31;5093642;28;20032;-82
2021/03/31 06:18:14;;;;;;;18.60;9.50;;;10.40;74.80;;;10.44;61.95;101253.06;5082127;28;20048;-83
2021/03/31 06:20:56;;;;;;;16.45;8.73;;;10.60;73.60;;;10.53;61.20;101249.34;5085426;28;20051;-84
2021/03/31 06:23:36;;;;;;;22.23;9.20;;;10.80;72.10;;;10.60;61.78;101246.78;5081599;28;20040;-84
2021/03/31 06:26:23;;;;;;;28.88;9.27;;;11.00;72.70;;;10.66;60.62;101251.59;5089096;28;20118;-82
2021/03/31 06:28:57;;;;;;;28.10;9.55;;;11.20;69.10;;;10.71;59.51;101248.34;5090509;28;20040;-84
2021/03/31 06:31:29;;;;;;;20.02;8.90;;;11.30;68.20;;;10.78;58.42;101249.38;5087956;28;20044;-84
2021/03/31 06:34:01;;;;;;;17.95;8.60;;;11.50;66.70;;;10.85;58.40;101244.97;5073297;28;20048;-85
2021/03/31 06:36:38;;;;;;;19.40;8.85;;;11.70;66.20;;;10.91;58.09;101249.75;5078492;28;20041;-84
2021/03/31 06:39:24;;;;;;;21.77;9.55;;;11.80;65.70;;;10.99;57.94;101242.59;5085309;28;20052;-84
2021/03/31 06:41:58;;;;;;;27.75;9.00;;;11.90;64.80;;;11.05;57.53;101241.94;5077929;28;20056;-84
2021/03/31 06:44:51;;;;;;;19.65;9.05;;;12.10;64.30;;;11.10;56.96;101247.69;5082904;28;20544;-84
2021/03/31 06:47:23;;;;;;;18.48;8.98;;;12.20;63.30;;;11.16;56.67;101247.03;5092923;28;20052;-84
2021/03/31 06:49:51;;;;;;;19.02;8.95;;;12.30;62.70;;;11.23;56.71;101239.00;5086447;28;20051;-84
2021/03/31 06:52:18;;;;;;;20.70;8.77;;;12.40;62.70;;;11.29;56.83;101231.03;5085841;28;20047;-83
2021/03/31 06:54:47;;;;;;;25.17;8.63;;;12.60;63.10;;;11.35;57.22;101240.38;5081946;28;20674;-83
2021/03/31 06:57:25;;;;;;;18.67;8.52;;;12.70;63.10;;;11.43;56.73;101234.91;5086304;28;20803;-83
2021/03/31 07:00:01;;;;;;;24.30;8.50;;;12.80;62.30;;;11.49;56.17;101225.19;5085356;28;20109;-83
2021/03/31 07:02:30;;;;;;;24.35;9.43;;;13.00;61.00;;;11.56;56.20;101234.38;5079522;28;20079;-83
2021/03/31 07:04:59;;;;;;;21.75;8.60;;;13.10;60.90;;;11.62;56.52;101228.22;5084018;28;20492;-83
2021/03/31 07:10:45;;;;;;;23.65;8.85;;;13.30;60.50;;;11.80;57.32;101229.88;5070848;28;20063;-83
2021/03/31 07:13:27;;;;;;;25.23;9.07;;;13.50;61.30;;;11.86;57.94;101221.00;5078730;28;20096;-83
2021/03/31 07:15:54;;;;;;;21.05;7.90;;;13.70;61.40;;;11.94;56.47;101223.75;5082205;28;20051;-83
2021/03/31 07:18:23;;;;;;;21.42;8.35;;;13.80;59.50;;;12.01;56.36;101230.19;5084583;28;20052;-84
2021/03/31 07:20:51;;;;;;;21.90;9.13;;;13.90;59.30;;;12.10;56.38;101222.81;5082618;28;20059;-84
2021/03/31 07:23:20;;;;;;;15.23;8.35;;;14.00;59.40;;;12.18;57.99;101220.03;5087891;28;20070;-83
2021/03/31 07:25:46;;;;;;;25.60;8.73;;;14.20;60.80;;;12.28;58.19;101225.28;5079943;28;20051;-83
2021/03/31 07:28:24;;;;;;;22.83;8.40;;;14.30;60.50;;;12.40;60.00;101215.69;5088999;28;20146;-83
2021/03/31 07:30:51;;;;;;;18.92;7.82;;;14.40;62.30;;;12.50;59.11;101224.47;5075899;28;20569;-82
2021/03/31 07:33:24;;;;;;;17.65;8.05;;;14.50;61.10;;;12.67;58.62;101213.47;5080616;28;20040;-83
2021/03/31 07:35:52;;;;;;;17.35;7.82;;;14.70;61.20;;;12.75;57.67;101218.00;5081821;28;20048;-82
2021/03/31 07:38:23;;;;;;;17.48;6.82;;;14.80;59.30;;;12.93;55.96;101217.69;5091033;28;20219;-82
2021/03/31 07:40:52;;;;;;;17.08;7.10;;;14.90;58.10;;;13.11;56.25;101215.50;5093145;28;20036;-82
2021/03/31 07:43:26;;;;;;;18.05;7.18;;;15.10;57.70;;;13.23;53.16;101207.72;5088348;28;20039;-82
2021/03/31 07:46:00;;;;;;;12.85;6.38;;;15.30;55.80;;;13.41;50.92;101208.25;5080094;28;20098;-82
2021/03/31 07:48:28;;;;;;;17.50;6.22;;;15.40;53.20;;;13.61;51.88;101205.84;5086328;28;20044;-83
2021/03/31 07:50:55;;;;;;;12.32;6.20;;;15.60;54.50;;;13.76;48.31;101204.97;5087367;28;20079;-83
2021/03/31 07:53:23;;;;;;;18.65;6.85;;;15.80;51.50;;;13.90;48.63;101201.41;5088866;28;20036;-83
2021/03/31 07:55:52;;;;;;;14.00;5.80;;;16.00;51.00;;;14.03;49.50;101192.50;5090344;28;20040;-84
2021/03/31 07:58:28;;;;;;;13.52;5.88;;;16.10;51.00;;;14.15;50.88;101198.34;5086858;28;20044;-89
2021/03/31 08:01:04;;;;;;;13.15;6.00;;;16.20;51.30;;;14.36;47.82;101203.03;5087263;28;20048;-86
2021/03/31 08:03:33;;;;;;;16.05;6.20;;;16.40;50.60;;;14.47;50.36;101205.28;5088562;28;20118;-84
2021/03/31 08:06:17;;;;;;;12.35;5.65;;;16.50;51.50;;;14.62;47.77;101205.22;5089103;28;20079;-84
2021/03/31 08:09:04;;;;;;;13.05;5.78;;;16.70;49.60;;;14.64;48.38;101200.41;5077301;28;20047;-83
2021/03/31 08:11:55;;;;;;;17.25;5.28;;;16.80;49.10;;;14.71;46.42;101208.72;5087353;28;20067;-84
2021/03/31 08:14:43;;;;;;;;;;;16.90;46.50;;;14.92;47.72;101207.84;5085917;28;20071;-83
2021/03/31 08:17:13;;;;;;;10.35;4.90;;;17.10;48.90;;;14.92;46.63;101205.13;5089306;28;20398;-83
2021/03/31 08:19:46;;;;;;;11.65;5.38;;;17.30;46.80;;;15.00;46.42;101207.72;5080835;28;20050;-84
2021/03/31 08:22:38;;;;;;;12.73;5.22;;;17.30;46.70;;;15.09;44.53;101206.53;5089567;28;20053;-83
2021/03/31 08:25:25;;;;;;;;;;;17.40;44.80;;;15.30;46.73;101207.56;5080736;28;20040;-83
2021/03/31 08:28:02;;;;;;;10.68;4.47;;;17.60;46.90;;;15.35;46.28;101211.41;5090529;28;19959;-83
2021/03/31 08:30:32;;;;;;;12.85;5.15;;;17.70;46.40;;;15.40;44.89;101210.78;5092836;28;20047;-83
2021/03/31 08:32:59;;;;;;;16.80;6.45;;;17.80;45.00;;;15.49;46.42;101203.28;5092216;28;20090;-83
2021/03/31 08:35:28;;;;;;;11.15;4.65;;;17.90;44.80;;;15.66;45.38;101204.66;5086017;28;20047;-83
2021/03/31 08:37:55;;;;;;;11.18;4.85;;;18.00;44.50;;;15.68;46.07;101204.44;5093757;28;20549;-83
2021/03/31 08:40:27;;;;;;;11.95;4.63;;;18.00;45.00;;;15.71;43.93;101212.28;5082247;28;20045;-83
2021/03/31 08:42:59;;;;;;;11.27;4.60;;;18.10;43.70;;;15.78;45.53;101205.81;5091261;28;20063;-84
2021/03/31 08:45:33;;;;;;;9.15;4.18;;;18.20;44.20;;;16.05;44.24;101207.84;5081791;28;20043;-83
2021/03/31 08:48:00;;;;;;;13.20;4.30;;;18.30;43.80;;;16.13;42.41;101208.53;5091585;28;20408;-83
2021/03/31 08:50:36;;;;;;;11.18;4.20;;;18.40;42.60;;;16.12;43.32;101203.25;5080639;28;20047;-83
2021/03/31 08:53:08;;;;;;;13.73;4.28;;;18.40;42.60;;;16.16;41.00;101202.63;5086287;28;20079;-83
2021/03/31 08:55:38;;;;;;;9.65;4.18;;;18.50;41.20;;;16.39;41.95;101194.06;5079562;28;20089;-84
2021/03/31 08:58:08;;;;;;;9.95;4.88;;;18.60;42.70;;;16.41;41.27;101199.31;5079021;28;20044;-83
2021/03/31 09:00:47;;;;;;;13.57;4.88;;;18.60;41.20;;;16.41;41.44;101196.56;5079712;28;20049;-83
2021/03/31 09:03:14;;;;;;;11.23;4.25;;;18.70;41.40;;;16.44;42.73;101198.09;5091748;28;20701;-83
2021/03/31 09:05:55;;;;;;;9.52;4.45;;;18.80;41.30;;;16.50;40.92;101194.50;5100294;28;20051;-83
2021/03/31 09:08:23;;;;;;;12.93;4.75;;;18.80;39.00;;;16.51;41.88;101191.56;5093141;28;20109;-83
2021/03/31 09:10:55;;;;;;;12.30;4.43;;;18.90;40.70;;;16.58;41.11;101183.31;5091779;28;20063;-83
2021/03/31 09:13:30;;;;;;;12.27;4.80;;;19.00;40.20;;;16.61;41.95;101183.75;5079610;28;20177;-84
2021/03/31 09:15:59;;;;;;;14.85;4.45;;;19.00;40.30;;;16.59;40.98;101193.25;5085392;28;20064;-84
2021/03/31 09:18:27;;;;;;;10.32;3.95;;;19.00;39.80;;;16.65;40.88;101186.94;5073044;28;20083;-83
2021/03/31 09:20:54;;;;;;;13.32;4.40;;;19.10;38.80;;;16.64;40.75;101190.75;5074095;28;20052;-82
2021/03/31 09:23:24;;;;;;;10.50;4.22;;;19.10;39.40;;;16.59;41.76;101185.00;5072062;28;20082;-84
2021/03/31 09:25:59;;;;;;;11.68;4.38;;;19.10;40.20;;;16.59;42.25;101187.75;5072151;28;20067;-84
2021/03/31 09:28:27;;;;;;;10.85;4.90;;;19.10;39.90;;;16.71;41.13;101186.09;5075124;28;20045;-83
2021/03/31 09:30:57;;;;;;;17.27;5.55;;;19.10;40.10;;;16.76;39.89;101183.56;5083476;28;20076;-84
2021/03/31 09:33:30;;;;;;;13.80;5.23;;;19.10;39.50;;;16.79;41.83;101183.16;5094173;28;20056;-83
2021/03/31 09:36:14;;;;;;;25.27;5.72;;;19.10;40.60;;;16.86;39.36;101176.84;5075239;28;20301;-83
2021/03/31 09:38:41;;;;;;;17.90;4.47;;;19.10;38.90;;;16.83;41.18;101166.25;5074002;28;20045;-83
2021/03/31 09:41:08;;;;;;;13.77;5.28;;;19.10;40.20;;;16.85;41.34;101169.63;5091381;28;20150;-83
2021/03/31 09:43:35;;;;;;;12.93;4.90;;;19.20;40.40;;;16.91;41.25;101174.31;5091661;28;20046;-81
2021/03/31 09:46:03;;;;;;;15.32;5.80;;;19.20;40.50;;;16.92;39.89;101173.25;5092139;28;20040;-81
2021/03/31 09:48:31;;;;;;;21.25;5.40;;;19.20;39.10;;;16.87;41.28;101173.03;5090922;28;20052;-81
2021/03/31 09:50:58;;;;;;;11.70;5.30;;;19.20;40.60;;;16.98;39.38;101169.66;5092510;28;20036;-81
2021/03/31 09:53:25;;;;;;;9.30;4.28;;;19.20;39.20;;;17.02;40.74;101170.94;5092701;28;20040;-81
2021/03/31 09:55:53;;;;;;;14.65;5.22;;;19.30;40.00;;;17.01;38.97;101158.25;5090169;28;20136;-82
2021/03/31 09:58:25;;;;;;;10.43;4.47;;;19.20;38.50;;;16.93;41.07;101161.22;5093129;28;20067;-84
2021/03/31 10:01:01;;;;;;;11.30;4.72;;;19.30;40.10;;;16.95;41.88;101168.19;5092297;28;20040;-87
2021/03/31 10:03:30;;;;;;;12.70;5.65;;;19.30;41.10;;;17.07;41.17;101160.13;5088403;28;20043;-87
2021/03/31 10:06:13;;;;;;;12.18;4.68;;;19.30;40.70;;;17.20;41.13;101157.38;5088650;28;20047;-84
2021/03/31 10:08:40;;;;;;;10.80;5.45;;;19.40;40.80;;;17.19;38.45;101152.09;5088765;28;20105;-84
2021/03/31 10:11:09;;;;;;;11.68;5.20;;;19.40;38.40;;;17.25;39.40;101143.00;5090463;28;20109;-84
2021/03/31 10:13:36;;;;;;;13.93;5.40;;;19.40;39.10;;;17.29;40.08;101154.44;5089796;28;20036;-85
2021/03/31 10:16:06;;;;;;;13.75;6.00;;;19.50;39.90;;;17.29;40.47;101147.00;5090240;28;20039;-85
2021/03/31 10:18:33;;;;;;;15.23;6.28;;;19.50;40.20;;;17.28;39.72;101138.97;5090043;28;20062;-84
2021/03/31 10:21:04;;;;;;;13.75;5.03;;;19.50;39.20;;;17.24;39.11;101145.97;5089887;28;20040;-85
2021/03/31 10:23:34;;;;;;;15.57;6.20;;;19.50;38.70;;;17.43;40.15;101144.25;5088335;28;20055;-84
2021/03/31 10:26:22;;;;;;;17.30;6.03;;;19.60;40.00;;;17.50;40.71;101129.41;5089266;28;20278;-82